Greenwich, Kansas
Current Conditions -  °F | °C
As of 6:54 PM on Friday 24 Oct 2014 (Local Time) from KAAO Reporting Station
Clear Clear  
Wind Chill: 73°   Ceiling: Unl
Heat Index: 73°   Visibility: 10mi
Dew Point: 61°   Wind: 8mph
Humidity: 66%   Direction: 200°SSW
Pressure: 29.99"   Gusts: NA
Location:  37.78°N, 97.2°W
Report Text: KAAO 242354Z AUTO 20007KT 10SM CLR 23/16 A2999 RMK AO2 SLP150 T02280161 10278 20228 53001 $
Loading
Personal Weather Stations






























Interactive Weather Map
Tropical Storm Tracking
New forecast layout! Learn more

10-Day Weather Forecast

Advertisements
Track Severe Weather on mobile